Ds Blue Wave — A8YK2 — position and weather

sailwx.info

Track history (hours):
 
Tides and Currents Weather Stations Pressure Air Temp Water Temp Dewpoint Dewpoint Depression Visibility Wind Speed Wind Dir Waves Ship Positions

Ds Blue Wave

Last reported at 2016-Feb-11 22:33 UTC. Time now 2016-Feb-12 22:34 UTC.
Position N 33°42' E 129°58'.

Length 129 m; draft 6.4 m.

Type: Cargo ship. MMSI: 636092200.

Date/timePositionNaut miles runAvg speedWind from/ knotsBaromVisibWave heightAir tempDewpointWater temp
2016-Feb-11 22:33N 33°42' E 129°58'24912.2
2016-Feb-11 02:06N 34°35' E 134°53'815.6
2016-Feb-11 01:33N 34°37' E 135°03'1110.8
2016-Feb-11 00:33N 34°40' E 135°15'1 0.8
2016-Feb-10 23:24N 34°41' E 135°15'0 0.0
2016-Feb-10 22:30N 34°41' E 135°15'0 0.0
2016-Feb-10 21:30N 34°41' E 135°15'0 0.0
2016-Feb-10 20:30N 34°41' E 135°15'0 0.0
2016-Feb-10 19:30N 34°41' E 135°15'0 0.0
2016-Feb-10 18:30N 34°41' E 135°15'0 0.0
2016-Feb-10 17:30N 34°41' E 135°15'0 0.0
2016-Feb-10 16:30N 34°41' E 135°15'0 0.0
2016-Feb-10 15:30N 34°41' E 135°15'0 0.0
2016-Feb-10 14:30N 34°41' E 135°15'0 0.0
2016-Feb-10 13:30N 34°41' E 135°15'0 0.0
2016-Feb-10 12:30N 34°41' E 135°15'0 0.0
2016-Feb-10 11:33N 34°41' E 135°15'5 4.6
2016-Feb-10 10:33N 34°39' E 135°20'3 0.5
2016-Feb-10 03:33N 34°39' E 135°24'0 0.0
2016-Feb-10 00:15N 34°39' E 135°24'0 0.1
2016-Feb-09 23:12N 34°39' E 135°24'3 4.8
2016-Feb-09 22:32N 34°37' E 135°21'9 8.7
2016-Feb-09 21:33N 34°35' E 135°11'26611.4
2016-Feb-08 22:13N 33°42' E 129°56'43814.1
2016-Feb-07 15:09N 31°18' E 121°46'6 9.4
2016-Feb-07 14:32N 31°21' E 121°40'4 3.6
2016-Feb-07 13:24N 31°22' E 121°35'0 0.0
2016-Feb-07 11:30N 31°22' E 121°35'0 0.0
2016-Feb-07 10:30N 31°22' E 121°35'0 0.0
2016-Feb-07 09:24N 31°22' E 121°35'0 0.0
2016-Feb-07 08:30N 31°22' E 121°35'0 0.0
2016-Feb-07 07:30N 31°22' E 121°35'0 0.0
2016-Feb-07 06:31N 31°22' E 121°35'0 0.0
2016-Feb-07 04:19N 31°22' E 121°35'0 0.0
2016-Feb-07 00:25N 31°22' E 121°35'0 0.0
2016-Feb-06 23:31N 31°22' E 121°35'1 1.3
2016-Feb-06 22:24N 31°22' E 121°37'  
2016-Feb-04 05:33N 33°43' E 129°57'25011.8
2016-Feb-03 08:26N 34°35' E 134°53'1314.5
2016-Feb-03 07:33N 34°36' E 135°08'8 6.4
2016-Feb-03 06:22N 34°41' E 135°15'0 0.0
2016-Feb-03 05:28N 34°41' E 135°15'0 0.0
2016-Feb-03 03:28N 34°41' E 135°15'0 0.0
2016-Feb-03 02:28N 34°41' E 135°15'0 0.0
2016-Feb-03 01:28N 34°41' E 135°15'0 0.0
2016-Feb-03 00:28N 34°41' E 135°15'0 0.0
2016-Feb-02 23:28N 34°41' E 135°15'0 0.1
2016-Feb-02 22:28N 34°41' E 135°15'3 3.5
2016-Feb-02 21:33N 34°39' E 135°18'0 0.1
2016-Feb-02 20:30N 34°39' E 135°18'0 0.4
2016-Feb-02 19:33N 34°39' E 135°18'5 4.4
2016-Feb-02 18:27N 34°39' E 135°24'0 0.0
2016-Feb-02 17:33N 34°39' E 135°24'0 0.0
2016-Feb-02 16:33N 34°39' E 135°24'0 0.0
2016-Feb-02 15:21N 34°39' E 135°24'0 0.0
2016-Feb-02 14:15N 34°39' E 135°24'0 0.0
2016-Feb-02 13:27N 34°39' E 135°24'0 0.0
2016-Feb-02 12:33N 34°39' E 135°24'0 0.0
2016-Feb-02 11:33N 34°39' E 135°24'0 0.0
2016-Feb-02 10:33N 34°39' E 135°24'0 0.0
2016-Feb-02 09:33N 34°39' E 135°24'0 0.0
2016-Feb-02 08:34N 34°39' E 135°24'0 0.0
2016-Feb-02 07:34N 34°39' E 135°24'6 5.7
2016-Feb-02 06:34N 34°36' E 135°18'  
Track history (hours):
 
Tides and Currents Weather Stations Pressure Air Temp Water Temp Dewpoint Dewpoint Depression Visibility Wind Speed Wind Dir Waves Ship Positions

Ds Blue Wave

Last reported at 2016-Feb-11 22:33 UTC. Time now 2016-Feb-12 22:34 UTC.
Position N 33°42' E 129°58'.

Length 129 m; draft 6.4 m.

Type: Cargo ship. MMSI: 636092200.

Date/timePositionNaut miles runAvg speedWind from/ knotsBaromVisibWave heightAir tempDewpointWater temp
2016-Feb-11 22:33N 33°42' E 129°58'24912.2
2016-Feb-11 02:06N 34°35' E 134°53'815.6
2016-Feb-11 01:33N 34°37' E 135°03'1110.8
2016-Feb-11 00:33N 34°40' E 135°15'1 0.8
2016-Feb-10 23:24N 34°41' E 135°15'0 0.0
2016-Feb-10 22:30N 34°41' E 135°15'0 0.0
2016-Feb-10 21:30N 34°41' E 135°15'0 0.0
2016-Feb-10 20:30N 34°41' E 135°15'0 0.0
2016-Feb-10 19:30N 34°41' E 135°15'0 0.0
2016-Feb-10 18:30N 34°41' E 135°15'0 0.0
2016-Feb-10 17:30N 34°41' E 135°15'0 0.0
2016-Feb-10 16:30N 34°41' E 135°15'0 0.0
2016-Feb-10 15:30N 34°41' E 135°15'0 0.0
2016-Feb-10 14:30N 34°41' E 135°15'0 0.0
2016-Feb-10 13:30N 34°41' E 135°15'0 0.0
2016-Feb-10 12:30N 34°41' E 135°15'0 0.0
2016-Feb-10 11:33N 34°41' E 135°15'5 4.6
2016-Feb-10 10:33N 34°39' E 135°20'3 0.5
2016-Feb-10 03:33N 34°39' E 135°24'0 0.0
2016-Feb-10 00:15N 34°39' E 135°24'0 0.1
2016-Feb-09 23:12N 34°39' E 135°24'3 4.8
2016-Feb-09 22:32N 34°37' E 135°21'9 8.7
2016-Feb-09 21:33N 34°35' E 135°11'26611.4
2016-Feb-08 22:13N 33°42' E 129°56'43814.1
2016-Feb-07 15:09N 31°18' E 121°46'6 9.4
2016-Feb-07 14:32N 31°21' E 121°40'4 3.6
2016-Feb-07 13:24N 31°22' E 121°35'0 0.0
2016-Feb-07 11:30N 31°22' E 121°35'0 0.0
2016-Feb-07 10:30N 31°22' E 121°35'0 0.0
2016-Feb-07 09:24N 31°22' E 121°35'0 0.0
2016-Feb-07 08:30N 31°22' E 121°35'0 0.0
2016-Feb-07 07:30N 31°22' E 121°35'0 0.0
2016-Feb-07 06:31N 31°22' E 121°35'0 0.0
2016-Feb-07 04:19N 31°22' E 121°35'0 0.0
2016-Feb-07 00:25N 31°22' E 121°35'0 0.0
2016-Feb-06 23:31N 31°22' E 121°35'1 1.3
2016-Feb-06 22:24N 31°22' E 121°37'  
2016-Feb-04 05:33N 33°43' E 129°57'25011.8
2016-Feb-03 08:26N 34°35' E 134°53'1314.5
2016-Feb-03 07:33N 34°36' E 135°08'8 6.4
2016-Feb-03 06:22N 34°41' E 135°15'0 0.0
2016-Feb-03 05:28N 34°41' E 135°15'0 0.0
2016-Feb-03 03:28N 34°41' E 135°15'0 0.0
2016-Feb-03 02:28N 34°41' E 135°15'0 0.0
2016-Feb-03 01:28N 34°41' E 135°15'0 0.0
2016-Feb-03 00:28N 34°41' E 135°15'0 0.0
2016-Feb-02 23:28N 34°41' E 135°15'0 0.1
2016-Feb-02 22:28N 34°41' E 135°15'3 3.5
2016-Feb-02 21:33N 34°39' E 135°18'0 0.1
2016-Feb-02 20:30N 34°39' E 135°18'0 0.4
2016-Feb-02 19:33N 34°39' E 135°18'5 4.4
2016-Feb-02 18:27N 34°39' E 135°24'0 0.0
2016-Feb-02 17:33N 34°39' E 135°24'0 0.0
2016-Feb-02 16:33N 34°39' E 135°24'0 0.0
2016-Feb-02 15:21N 34°39' E 135°24'0 0.0
2016-Feb-02 14:15N 34°39' E 135°24'0 0.0
2016-Feb-02 13:27N 34°39' E 135°24'0 0.0
2016-Feb-02 12:33N 34°39' E 135°24'0 0.0
2016-Feb-02 11:33N 34°39' E 135°24'0 0.0
2016-Feb-02 10:33N 34°39' E 135°24'0 0.0
2016-Feb-02 09:33N 34°39' E 135°24'0 0.0
2016-Feb-02 08:34N 34°39' E 135°24'0 0.0
2016-Feb-02 07:34N 34°39' E 135°24'6 5.7
2016-Feb-02 06:34N 34°36' E 135°18'  

Dump ship's entire track history